Golden Lake, Canada
Current Conditions -  °F | °C
As of 3:25 PM on Thursday 29 Jan 2015 (Local Time) from CYWA Reporting Station
Light Snow Light Snow  
Wind Chill:   Ceiling: 400
Heat Index: 18°   Visibility: 0.37mi
Dew Point: 16°   Wind: 16mph
Humidity: 93%   Direction: 140°SE
Pressure: 29.8"   Gusts: NA
Location:  45.58°N, 77.25°W
Report Text: CYWA 292025Z AUTO 14014KT 3/8SM -SN VV004 M08/M09 A2980
Loading
Personal Weather Stations






























Interactive Weather Map New forecast layout! Learn more

10-Day Weather Forecast

Advertisements
Track Severe Weather on mobile